Time;durP1;ratioP1;P1;durP2;ratioP2;P2;SDS_P1;SDS_P2;PMS_P1;PMS_P2;Temp;Humidity;BMP_temperature;BMP_pressure;BME280_temperature;BME280_humidity;BME280_pressure;Samples;Min_cycle;Max_cycle;Signal;HPM_P1;HPM_P2
2023/07/24 00:01:56;;;;;;;3.80;1.80;;;;;;;22.48;52.74;99304.34;10325697;28;20054;-72
2023/07/24 00:06:58;;;;;;;2.40;1.30;;;;;;;22.52;51.96;99310.97;10325655;28;20116;-72
2023/07/24 00:11:59;;;;;;;3.67;1.98;;;;;;;22.52;52.24;99316.41;10328584;28;20598;-72
2023/07/24 00:17:01;;;;;;;2.33;1.70;;;;;;;22.52;51.96;99321.81;10327097;28;20144;-69
2023/07/24 00:22:02;;;;;;;1.70;1.27;;;;;;;22.51;51.68;99317.44;10327548;28;20058;-73
2023/07/24 00:27:04;;;;;;;4.63;2.08;;;;;;;22.49;51.55;99297.03;10321663;28;20107;-73
2023/07/24 00:32:06;;;;;;;4.07;1.48;;;;;;;22.51;51.26;99295.75;10326582;28;20057;-71
2023/07/24 00:37:07;;;;;;;2.72;1.83;;;;;;;22.52;51.43;99289.28;10326182;28;20128;-71
2023/07/24 00:42:08;;;;;;;3.42;2.80;;;;;;;22.49;51.63;99283.47;10326793;28;20180;-69
2023/07/24 00:47:10;;;;;;;5.80;2.67;;;;;;;22.48;51.14;99281.84;10328862;28;20295;-73
2023/07/24 00:52:12;;;;;;;3.10;1.90;;;;;;;22.46;51.33;99286.63;10326006;28;20277;-72
2023/07/24 00:57:14;;;;;;;2.60;1.73;;;;;;;22.50;51.58;99283.25;10327989;28;20072;-72
2023/07/24 01:02:15;;;;;;;2.80;2.28;;;;;;;22.49;51.42;99281.59;10331476;28;20611;-72
2023/07/24 01:07:17;;;;;;;2.60;1.70;;;;;;;22.47;51.83;99272.03;10336069;28;20147;-72
2023/07/24 01:12:32;;;;;;;2.17;1.95;;;;;;;22.51;51.81;99270.53;10333228;28;20054;-72
2023/07/24 01:17:39;;;;;;;3.85;2.38;;;;;;;22.53;52.45;99285.53;10338030;28;20338;-71
2023/07/24 01:22:57;;;;;;;3.05;2.10;;;;;;;22.52;52.15;99273.03;10339165;28;20061;-73
2023/07/24 01:27:59;;;;;;;5.13;2.90;;;;;;;22.50;53.17;99261.56;10332525;28;20547;-70
2023/07/24 01:33:01;;;;;;;3.38;2.13;;;;;;;22.49;53.29;99265.34;10335434;28;20065;-71
2023/07/24 01:38:03;;;;;;;4.55;2.17;;;;;;;22.47;53.38;99256.56;10333860;28;20058;-72
2023/07/24 01:43:05;;;;;;;2.60;1.77;;;;;;;22.42;53.52;99248.31;10334187;28;20323;-71
2023/07/24 01:48:06;;;;;;;3.00;2.42;;;;;;;22.38;53.64;99247.94;10331912;28;20572;-72
2023/07/24 01:53:09;;;;;;;3.55;2.53;;;;;;;22.35;53.22;99237.56;10327441;28;20046;-72
2023/07/24 01:58:10;;;;;;;2.67;1.90;;;;;;;22.30;53.83;99212.94;10328238;28;20101;-71
2023/07/24 02:03:12;;;;;;;3.22;2.53;;;;;;;22.32;54.42;99231.72;10334997;28;20049;-72
2023/07/24 02:08:13;;;;;;;3.70;2.30;;;;;;;22.26;54.67;99211.75;10333677;28;20512;-72
2023/07/24 02:13:15;;;;;;;3.15;2.00;;;;;;;22.23;54.38;99207.63;10330373;28;20049;-72
2023/07/24 02:18:16;;;;;;;3.63;2.42;;;;;;;22.15;54.71;99188.94;10329563;28;20540;-70
2023/07/24 02:23:18;;;;;;;3.22;2.03;;;;;;;22.12;54.36;99173.13;10332668;28;20211;-72
2023/07/24 02:28:19;;;;;;;2.38;1.88;;;;;;;22.11;54.47;99159.81;10331481;28;20064;-72
2023/07/24 02:33:21;;;;;;;4.00;2.67;;;;;;;22.13;54.84;99154.97;10327306;28;20477;-71
2023/07/24 02:38:22;;;;;;;3.90;1.90;;;;;;;22.08;55.35;99169.19;10332431;28;20159;-71
2023/07/24 02:43:24;;;;;;;2.60;1.88;;;;;;;22.07;55.43;99179.22;10330133;28;20516;-73
2023/07/24 02:48:25;;;;;;;2.97;2.03;;;;;;;22.06;55.20;99185.69;10327837;28;21477;-72
2023/07/24 02:53:26;;;;;;;3.47;2.05;;;;;;;22.04;55.04;99184.28;10328826;28;20057;-72
2023/07/24 02:58:28;;;;;;;3.42;2.22;;;;;;;22.02;54.72;99183.66;10329392;28;20248;-72
2023/07/24 03:03:29;;;;;;;2.35;1.98;;;;;;;21.99;54.91;99189.53;10330466;28;20117;-73
2023/07/24 03:08:31;;;;;;;2.40;1.90;;;;;;;21.95;54.38;99199.13;10360955;28;20068;-72
2023/07/24 03:13:33;;;;;;;4.75;2.47;;;;;;;21.88;53.83;99194.63;10330543;28;20058;-71
2023/07/24 03:18:34;;;;;;;4.00;2.38;;;;;;;21.80;53.99;99194.91;10330546;28;20065;-71
2023/07/24 03:23:35;;;;;;;3.95;2.58;;;;;;;21.81;53.70;99210.13;10328769;28;20303;-71
2023/07/24 03:28:37;;;;;;;4.47;2.88;;;;;;;21.76;53.36;99169.31;10329382;28;20415;-68
2023/07/24 03:33:38;;;;;;;4.90;2.45;;;;;;;21.78;54.70;99172.63;10328255;28;20408;-70
2023/07/24 03:38:40;;;;;;;3.45;2.53;;;;;;;21.76;54.94;99174.75;10340441;28;20050;-71
2023/07/24 03:43:41;;;;;;;2.63;2.38;;;;;;;21.67;55.57;99152.53;10327839;28;20053;-68
2023/07/24 03:48:43;;;;;;;3.40;2.50;;;;;;;21.64;56.67;99149.44;10325920;28;20567;-71
2023/07/24 03:53:44;;;;;;;2.90;2.08;;;;;;;21.55;57.60;99138.06;10325938;28;20048;-70
2023/07/24 03:58:45;;;;;;;5.05;2.90;;;;;;;21.56;58.83;99130.78;10329412;28;20195;-71
2023/07/24 04:03:47;;;;;;;4.28;2.60;;;;;;;21.47;59.44;99117.50;10329399;28;20125;-72
2023/07/24 04:08:48;;;;;;;4.13;2.45;;;;;;;21.50;59.53;99100.84;10330203;28;20488;-71
2023/07/24 04:13:50;;;;;;;4.65;2.90;;;;;;;21.49;59.30;99099.16;10326792;28;20054;-70
2023/07/24 04:18:51;;;;;;;2.70;2.35;;;;;;;21.48;59.33;99107.50;10328212;28;20048;-71
2023/07/24 04:23:52;;;;;;;3.90;2.80;;;;;;;21.46;60.07;99125.84;10327247;28;20069;-72
2023/07/24 04:28:54;;;;;;;4.63;3.03;;;;;;;21.42;60.35;99130.03;10308017;28;20433;-71
2023/07/24 04:33:55;;;;;;;4.80;3.35;;;;;;;21.37;60.41;99128.00;10325821;28;20080;-71
2023/07/24 04:38:56;;;;;;;5.30;2.85;;;;;;;21.34;60.43;99141.97;10327501;28;20508;-71
2023/07/24 04:43:58;;;;;;;3.50;2.70;;;;;;;21.33;60.45;99143.00;10328726;28;20042;-70
2023/07/24 04:48:59;;;;;;;2.75;2.50;;;;;;;21.33;60.34;99140.31;10327849;28;20069;-69
2023/07/24 04:54:01;;;;;;;3.50;2.85;;;;;;;21.39;60.37;99144.84;10328832;28;20081;-71
2023/07/24 04:59:02;;;;;;;9.27;3.50;;;;;;;21.42;61.00;99157.09;10327784;28;20156;-72
2023/07/24 05:04:04;;;;;;;3.63;3.22;;;;;;;21.38;60.21;99132.38;10324362;28;20054;-69
2023/07/24 05:09:05;;;;;;;5.95;3.42;;;;;;;21.43;60.27;99137.94;10325778;28;20103;-70
2023/07/24 05:14:06;;;;;;;4.47;3.75;;;;;;;21.37;60.26;99122.59;10321828;28;20064;-70
2023/07/24 05:19:08;;;;;;;6.38;3.80;;;;;;;21.39;60.50;99139.41;10324834;28;20132;-71
2023/07/24 05:24:09;;;;;;;4.35;3.00;;;;;;;21.35;60.55;99146.34;10324207;28;20045;-72
2023/07/24 05:29:10;;;;;;;4.07;3.65;;;;;;;21.37;60.87;99141.53;10323926;28;20141;-71
2023/07/24 05:34:12;;;;;;;4.00;3.05;;;;;;;21.41;60.70;99155.44;10327589;28;20177;-70
2023/07/24 05:39:13;;;;;;;7.57;3.92;;;;;;;21.37;59.16;99147.75;10327290;28;20129;-71
2023/07/24 05:44:14;;;;;;;7.28;4.20;;;;;;;21.46;59.70;99131.25;10326901;28;20532;-71
2023/07/24 05:49:16;;;;;;;5.43;3.30;;;;;;;21.53;59.72;99110.41;10327175;28;20076;-69
2023/07/24 05:54:17;;;;;;;5.07;3.70;;;;;;;21.64;59.61;99116.97;10333377;28;20136;-70
2023/07/24 05:59:19;;;;;;;5.30;4.03;;;;;;;21.59;58.79;99114.94;10330299;28;20077;-68
2023/07/24 06:04:20;;;;;;;6.32;4.03;;;;;;;21.57;59.77;99110.78;10328470;28;20056;-70
2023/07/24 06:09:21;;;;;;;4.50;3.72;;;;;;;21.63;59.40;99126.97;10329335;28;20476;-70
2023/07/24 06:14:25;;;;;;;7.63;4.43;;;;;;;21.62;59.97;99114.47;10327664;28;20395;-70
2023/07/24 06:19:27;;;;;;;10.18;4.53;;;;;;;21.71;60.19;99126.66;10326479;28;20054;-70
2023/07/24 06:24:28;;;;;;;6.50;4.38;;;;;;;21.70;59.48;99129.59;10334199;28;20068;-71
2023/07/24 06:29:30;;;;;;;5.85;4.82;;;;;;;21.82;58.93;99130.50;10327985;28;20068;-71
2023/07/24 06:34:31;;;;;;;6.20;4.75;;;;;;;21.86;57.77;99126.31;10332701;28;20050;-70
2023/07/24 06:39:33;;;;;;;6.53;5.20;;;;;;;21.92;57.66;99116.47;10328277;28;20053;-71
2023/07/24 06:44:34;;;;;;;8.02;5.30;;;;;;;21.91;57.28;99122.91;10330505;28;20130;-70
2023/07/24 06:49:36;;;;;;;8.43;5.35;;;;;;;21.95;57.47;99115.16;10329574;28;20054;-70
2023/07/24 06:54:37;;;;;;;7.82;5.40;;;;;;;21.97;57.20;99122.00;10335506;28;20946;-71
2023/07/24 06:59:38;;;;;;;7.93;5.65;;;;;;;21.92;57.02;99142.69;10333048;28;20064;-68
2023/07/24 07:04:40;;;;;;;8.00;5.68;;;;;;;21.96;56.71;99119.53;10330922;28;20579;-70
2023/07/24 07:09:41;;;;;;;7.30;5.50;;;;;;;22.03;56.88;99136.53;10327487;28;20054;-71
2023/07/24 07:14:43;;;;;;;8.52;5.18;;;;;;;22.03;56.40;99131.13;10327714;28;20041;-67
2023/07/24 07:19:45;;;;;;;6.43;4.40;;;;;;;22.23;56.20;99126.31;10332265;28;20053;-68
2023/07/24 07:24:47;;;;;;;5.03;4.30;;;;;;;22.47;55.72;99125.63;10330211;28;20055;-70
2023/07/24 07:29:48;;;;;;;5.68;4.50;;;;;;;22.55;54.86;99118.00;10330239;28;20054;-70
2023/07/24 07:34:50;;;;;;;5.37;3.77;;;;;;;22.55;54.54;99106.34;10344189;28;20092;-69
2023/07/24 07:39:52;;;;;;;4.50;3.85;;;;;;;22.60;54.14;99112.69;10348261;28;20148;-73
2023/07/24 07:44:54;;;;;;;5.18;3.45;;;;;;;22.75;53.67;99106.03;10331326;28;20136;-72
2023/07/24 07:49:55;;;;;;;5.75;4.07;;;;;;;22.82;53.38;99106.78;10326655;28;20077;-71
2023/07/24 07:54:56;;;;;;;4.55;3.70;;;;;;;22.85;53.49;99090.03;10326939;28;20137;-70
2023/07/24 08:00:00;;;;;;;4.72;3.35;;;;;;;22.88;53.50;99089.56;10329824;28;20455;-71
2023/07/24 08:05:02;;;;;;;4.47;2.88;;;;;;;22.95;53.50;99093.00;10326482;28;20041;-70
2023/07/24 08:10:17;;;;;;;7.22;2.83;;;;;;;22.94;53.45;99104.09;10327407;28;20050;-71
2023/07/24 08:15:19;;;;;;;4.53;2.80;;;;;;;22.93;53.67;99086.97;10327531;28;20364;-71
2023/07/24 08:20:20;;;;;;;3.97;3.00;;;;;;;22.97;53.51;99083.78;10323456;28;20405;-70
2023/07/24 08:25:22;;;;;;;4.60;2.45;;;;;;;23.09;53.55;99079.22;10328437;28;20319;-69
2023/07/24 08:30:23;;;;;;;2.88;2.13;;;;;;;23.20;53.70;99064.84;10326930;28;20338;-69
2023/07/24 08:35:24;;;;;;;2.65;2.30;;;;;;;23.14;53.59;99060.38;10326683;28;20057;-73
2023/07/24 08:40:26;;;;;;;3.35;2.60;;;;;;;23.14;53.48;99062.28;10325948;28;20077;-69
2023/07/24 08:45:28;;;;;;;4.20;2.80;;;;;;;23.16;52.88;99069.09;10326642;28;20660;-72
2023/07/24 08:50:31;;;;;;;3.83;2.50;;;;;;;23.20;53.35;99054.00;10326691;28;20056;-70
2023/07/24 08:55:34;;;;;;;4.28;2.65;;;;;;;23.25;53.31;99035.09;10326450;28;20082;-70
2023/07/24 09:00:35;;;;;;;4.03;2.35;;;;;;;23.44;52.97;99054.00;10326490;28;20337;-69
2023/07/24 09:05:37;;;;;;;3.90;2.67;;;;;;;23.57;52.32;99040.19;10324129;28;20145;-71
2023/07/24 09:10:38;;;;;;;4.43;2.95;;;;;;;23.78;52.37;99049.59;10324579;28;20054;-71
2023/07/24 09:15:41;;;;;;;5.43;2.90;;;;;;;24.04;51.70;99054.75;10325765;28;20058;-72
2023/07/24 09:20:43;;;;;;;3.60;2.22;;;;;;;24.28;51.53;99042.72;10326213;28;20049;-72
2023/07/24 09:25:45;;;;;;;3.70;2.30;;;;;;;24.34;51.21;99036.31;10333579;28;20145;-70
2023/07/24 09:30:57;;;;;;;3.55;2.30;;;;;;;24.44;50.86;99018.53;10334830;28;20463;-72
2023/07/24 09:36:10;;;;;;;4.50;2.47;;;;;;;24.45;50.61;99009.31;10333503;28;20113;-70
2023/07/24 09:41:14;;;;;;;2.80;2.42;;;;;;;24.35;51.02;98980.88;10337533;28;20528;-70
2023/07/24 09:46:15;;;;;;;5.47;1.75;;;;;;;24.32;51.10;98970.47;10336081;28;20552;-72
2023/07/24 09:51:17;;;;;;;4.72;2.50;;;;;;;24.30;51.33;98974.50;10333889;28;20049;-69
2023/07/24 09:56:20;;;;;;;3.63;2.75;;;;;;;24.38;51.78;98981.44;10336341;28;20555;-71
2023/07/24 10:01:40;;;;;;;3.92;3.22;;;;;;;24.79;49.65;98980.25;10335936;28;20041;-70
2023/07/24 10:06:43;;;;;;;5.93;3.42;;;;;;;24.74;49.74;98987.50;10335187;28;20357;-71
2023/07/24 10:11:45;;;;;;;5.82;3.40;;;;;;;24.68;50.35;98992.88;10329683;28;20287;-70
2023/07/24 10:16:49;;;;;;;4.70;3.70;;;;;;;24.56;49.45;98983.94;10334659;28;20052;-71
2023/07/24 10:21:51;;;;;;;4.28;3.10;;;;;;;24.50;49.80;99002.06;10333220;28;20057;-71
2023/07/24 10:26:55;;;;;;;3.53;3.00;;;;;;;24.53;49.35;98995.31;10334111;28;20054;-71
2023/07/24 10:31:57;;;;;;;5.97;3.47;;;;;;;24.55;49.29;98997.78;10333057;28;20137;-71
2023/07/24 10:37:03;;;;;;;4.90;3.17;;;;;;;24.65;48.82;98996.09;10332696;28;20081;-72
2023/07/24 10:42:06;;;;;;;5.63;3.65;;;;;;;24.68;48.73;98997.47;10330046;28;20071;-70
2023/07/24 10:47:07;;;;;;;3.75;3.15;;;;;;;24.77;47.36;99006.06;10333115;28;20223;-72
2023/07/24 10:52:09;;;;;;;3.58;3.10;;;;;;;24.78;46.91;98986.75;10333394;28;20045;-72
2023/07/24 10:57:10;;;;;;;5.03;3.78;;;;;;;24.95;47.01;98992.22;10337322;28;20240;-71
2023/07/24 11:02:13;;;;;;;4.68;3.22;;;;;;;25.06;46.75;98988.56;10330135;28;20045;-72
2023/07/24 11:07:15;;;;;;;4.68;3.25;;;;;;;25.03;45.62;98978.19;10334029;28;20527;-72
2023/07/24 11:12:16;;;;;;;4.03;3.00;;;;;;;25.06;47.15;98977.69;10328703;28;20053;-70
2023/07/24 11:17:18;;;;;;;3.88;2.83;;;;;;;24.99;46.76;98968.03;10331924;28;20112;-71
2023/07/24 11:22:22;;;;;;;5.07;3.60;;;;;;;24.96;47.48;98965.81;10330162;28;20365;-70
2023/07/24 11:27:25;;;;;;;4.47;3.35;;;;;;;25.08;47.21;98963.00;10338287;28;20046;-71
2023/07/24 11:32:26;;;;;;;5.57;3.90;;;;;;;25.13;47.21;98944.00;10330222;28;20066;-71
2023/07/24 11:37:28;;;;;;;4.82;3.58;;;;;;;25.27;47.56;98942.56;10340681;28;20788;-72
2023/07/24 11:42:30;;;;;;;3.87;3.47;;;;;;;25.46;46.92;98942.28;10333726;28;20050;-74
2023/07/24 11:47:41;;;;;;;4.43;3.20;;;;;;;25.55;46.87;98935.31;10361270;28;20053;-73
2023/07/24 11:52:48;;;;;;;4.50;3.45;;;;;;;25.53;46.25;98937.47;10332431;28;20083;-72
2023/07/24 11:58:00;;;;;;;5.28;3.38;;;;;;;25.63;45.78;98921.25;10329963;28;20129;-71
2023/07/24 12:03:04;;;;;;;4.28;2.97;;;;;;;25.75;46.25;98912.94;10328426;28;20064;-72
2023/07/24 12:08:07;;;;;;;4.47;3.03;;;;;;;26.16;44.93;98901.66;10330135;28;20058;-69
2023/07/24 12:13:09;;;;;;;3.40;2.93;;;;;;;26.29;44.10;98912.13;10331257;28;20645;-70
2023/07/24 12:18:10;;;;;;;3.35;2.83;;;;;;;26.38;43.06;98891.47;10329862;28;20684;-70
2023/07/24 12:23:11;;;;;;;3.50;2.75;;;;;;;26.26;42.89;98880.75;10327757;28;20144;-72
2023/07/24 12:28:13;;;;;;;5.35;3.05;;;;;;;26.49;42.56;98878.72;10327867;28;20387;-73
2023/07/24 12:33:14;;;;;;;4.32;3.25;;;;;;;26.72;42.14;98861.19;10325864;28;20201;-73
2023/07/24 12:38:16;;;;;;;5.97;2.95;;;;;;;26.86;41.78;98849.78;10328920;28;20053;-71
2023/07/24 12:43:17;;;;;;;3.40;3.03;;;;;;;26.79;42.63;98861.75;10328919;28;20053;-71
2023/07/24 12:48:19;;;;;;;3.75;2.97;;;;;;;27.13;42.09;98842.28;10327249;28;20164;-73
2023/07/24 12:53:20;;;;;;;3.70;2.87;;;;;;;27.07;41.23;98848.81;10329664;28;20185;-71
2023/07/24 12:58:29;;;;;;;3.50;2.50;;;;;;;26.89;41.84;98851.97;10326946;28;20150;-70
2023/07/24 13:03:30;;;;;;;4.03;2.75;;;;;;;26.53;42.55;98852.56;10329260;28;20164;-72
2023/07/24 13:08:32;;;;;;;3.80;2.95;;;;;;;26.14;43.59;98860.16;10323517;28;20069;-72
2023/07/24 13:13:33;;;;;;;4.80;2.83;;;;;;;26.03;43.93;98841.03;10324504;28;20050;-72
2023/07/24 13:18:35;;;;;;;3.20;2.90;;;;;;;25.87;44.09;98850.94;10325882;28;20050;-72
2023/07/24 13:23:36;;;;;;;4.25;3.25;;;;;;;25.83;44.83;98832.63;10326523;28;20047;-71
2023/07/24 13:28:39;;;;;;;5.35;3.05;;;;;;;25.86;45.22;98818.47;10328515;28;20526;-72
2023/07/24 13:33:41;;;;;;;3.20;2.83;;;;;;;25.78;45.49;98811.59;10325702;28;20053;-71
2023/07/24 13:38:42;;;;;;;3.92;3.05;;;;;;;26.08;45.61;98794.72;10329352;28;20058;-71
2023/07/24 13:43:44;;;;;;;6.38;3.47;;;;;;;26.28;44.92;98785.03;10327148;28;20578;-73
2023/07/24 13:48:45;;;;;;;3.78;3.42;;;;;;;25.99;45.36;98766.28;10327648;28;20061;-72
2023/07/24 13:53:49;;;;;;;4.00;3.50;;;;;;;26.00;45.77;98761.66;10326375;28;20076;-72
2023/07/24 13:58:50;;;;;;;4.18;3.10;;;;;;;25.94;46.23;98768.94;10324794;28;20062;-73
2023/07/24 14:03:51;;;;;;;6.35;3.15;;;;;;;25.74;54.14;98791.38;10326127;28;20137;-71
2023/07/24 14:08:53;;;;;;;3.78;3.00;;;;;;;25.37;58.32;98811.19;10328892;28;20058;-72
2023/07/24 14:13:55;;;;;;;3.60;2.58;;;;;;;25.19;57.13;98801.41;10333239;28;20113;-71
2023/07/24 14:18:56;;;;;;;3.90;2.85;;;;;;;25.11;57.29;98796.44;10333774;28;20578;-70
2023/07/24 14:23:58;;;;;;;5.70;3.38;;;;;;;25.24;56.70;98787.88;10327219;28;20049;-73
2023/07/24 14:29:00;;;;;;;3.38;2.75;;;;;;;25.31;56.00;98774.91;10330693;28;20526;-72
2023/07/24 14:34:02;;;;;;;5.68;4.40;;;;;;;25.24;56.11;98766.09;10334225;28;20057;-70
2023/07/24 14:39:04;;;;;;;6.85;4.35;;;;;;;25.28;57.29;98778.13;10332795;28;20255;-72
2023/07/24 14:44:06;;;;;;;6.93;4.70;;;;;;;25.22;58.86;98792.75;10334158;28;20057;-72
2023/07/24 14:49:07;;;;;;;5.30;4.55;;;;;;;25.05;59.89;98787.38;10333085;28;20167;-70
2023/07/24 14:54:08;;;;;;;5.22;4.57;;;;;;;24.88;59.59;98757.53;10331841;28;20578;-73
2023/07/24 14:59:10;;;;;;;4.63;3.42;;;;;;;24.86;59.90;98755.06;10331467;28;20050;-71
2023/07/24 15:04:11;;;;;;;3.55;3.25;;;;;;;24.75;60.32;98753.28;10331877;28;20057;-74
2023/07/24 15:09:13;;;;;;;4.22;3.83;;;;;;;24.85;59.76;98731.63;10332228;28;20136;-71
2023/07/24 15:14:14;;;;;;;5.20;3.88;;;;;;;24.99;59.53;98731.25;10324585;28;20050;-73
2023/07/24 15:19:15;;;;;;;5.20;3.65;;;;;;;24.90;59.35;98743.66;10328357;28;20053;-71
2023/07/24 15:24:19;;;;;;;3.53;2.38;;;;;;;24.79;58.24;98705.44;10326527;28;20054;-74
2023/07/24 15:29:21;;;;;;;4.03;2.40;;;;;;;24.76;57.19;98721.47;10316246;28;20060;-72
2023/07/24 15:34:22;;;;;;;8.70;3.63;;;;;;;24.75;63.95;98753.28;10332454;28;20050;-72
2023/07/24 15:39:24;;;;;;;4.50;2.55;;;;;;;24.60;64.98;98802.84;10332976;28;20788;-72
2023/07/24 15:44:25;;;;;;;5.97;2.03;;;;;;;22.85;79.06;98855.88;10350741;28;20177;-73
2023/07/24 15:49:26;;;;;;;2.08;0.40;;;;;;;22.11;80.11;98808.38;10349316;28;20108;-72
2023/07/24 15:54:28;;;;;;;4.22;1.45;;;;;;;22.55;79.88;98818.91;10328932;28;20050;-71
2023/07/24 15:59:29;;;;;;;2.15;0.50;;;;;;;22.80;76.90;98818.63;10327344;28;20045;-73
2023/07/24 16:04:30;;;;;;;2.03;0.65;;;;;;;22.88;74.52;98802.00;10332322;28;20045;-73
2023/07/24 16:09:32;;;;;;;0.80;0.50;;;;;;;22.96;74.15;98800.78;10331073;28;20127;-73
2023/07/24 16:14:33;;;;;;;1.63;0.88;;;;;;;22.94;75.08;98792.91;10329160;28;20176;-72
2023/07/24 16:19:35;;;;;;;1.73;1.30;;;;;;;22.86;73.67;98793.25;10329911;28;20368;-70
2023/07/24 16:24:36;;;;;;;2.78;0.90;;;;;;;22.97;74.74;98798.91;10326464;28;20463;-74
2023/07/24 16:29:38;;;;;;;2.83;1.20;;;;;;;23.00;73.65;98798.41;10324476;28;21063;-73
2023/07/24 16:34:39;;;;;;;2.25;1.25;;;;;;;22.94;73.34;98811.06;10326831;28;20057;-73
2023/07/24 16:39:41;;;;;;;1.63;1.27;;;;;;;23.02;70.85;98807.97;10330850;28;20052;-73
2023/07/24 16:44:42;;;;;;;2.25;0.85;;;;;;;23.01;71.42;98805.50;10326393;28;20132;-74
2023/07/24 16:49:44;;;;;;;1.80;0.88;;;;;;;23.09;68.14;98826.84;10328384;28;20052;-73
2023/07/24 16:54:46;;;;;;;1.35;1.05;;;;;;;23.06;67.28;98824.59;10327056;28;20602;-70
2023/07/24 16:59:47;;;;;;;1.33;0.65;;;;;;;23.07;67.98;98831.66;10330044;28;20054;-70
2023/07/24 17:04:48;;;;;;;0.77;0.60;;;;;;;23.07;65.99;98837.91;10327841;28;20092;-71
2023/07/24 17:09:50;;;;;;;1.30;0.70;;;;;;;22.99;64.61;98840.19;10327850;28;20060;-73
2023/07/24 17:14:51;;;;;;;0.60;0.30;;;;;;;23.00;63.03;98848.09;10325317;28;20069;-73
2023/07/24 17:19:53;;;;;;;3.58;0.75;;;;;;;22.99;63.75;98856.47;10324899;28;20065;-70
2023/07/24 17:24:54;;;;;;;1.80;0.70;;;;;;;22.98;63.28;98841.25;10327119;28;20117;-72
2023/07/24 17:29:56;;;;;;;1.00;0.73;;;;;;;22.97;63.16;98861.31;10325690;28;20062;-72
2023/07/24 17:34:57;;;;;;;1.10;0.70;;;;;;;22.93;62.60;98859.06;10328050;28;20607;-72
2023/07/24 17:40:03;;;;;;;2.10;1.08;;;;;;;22.89;59.43;98868.75;10324841;28;20058;-72
2023/07/24 17:45:05;;;;;;;1.13;0.70;;;;;;;22.84;58.68;98876.78;10328858;28;20070;-71
2023/07/24 17:50:07;;;;;;;1.90;0.90;;;;;;;22.77;56.28;98873.34;10334991;28;20983;-72
2023/07/24 17:55:09;;;;;;;1.83;1.00;;;;;;;22.76;54.98;98874.44;10335726;28;20483;-71
2023/07/24 18:00:11;;;;;;;3.90;1.30;;;;;;;22.73;54.54;98883.03;10332186;28;20077;-68
2023/07/24 18:05:12;;;;;;;1.25;0.98;;;;;;;22.75;54.34;98894.47;10335521;28;20056;-70
2023/07/24 18:10:14;;;;;;;2.22;1.00;;;;;;;22.69;54.06;98895.44;10337561;28;20065;-72
2023/07/24 18:15:16;;;;;;;1.98;0.93;;;;;;;22.57;52.87;98898.94;10335811;28;20049;-71
2023/07/24 18:20:17;;;;;;;1.48;1.10;;;;;;;22.55;53.87;98903.78;10335047;28;20045;-73
2023/07/24 18:25:19;;;;;;;1.42;0.93;;;;;;;22.51;53.11;98910.72;10334532;28;20057;-71
2023/07/24 18:30:28;;;;;;;2.22;0.90;;;;;;;22.50;54.66;98919.91;10330510;28;20112;-72
2023/07/24 18:35:29;;;;;;;1.33;1.00;;;;;;;22.51;54.71;98918.88;10330442;28;20053;-71
2023/07/24 18:40:31;;;;;;;1.73;0.98;;;;;;;22.51;53.77;98927.00;10335296;28;20057;-71
2023/07/24 18:45:32;;;;;;;2.95;1.25;;;;;;;22.47;52.99;98941.25;10333925;28;20053;-70
2023/07/24 18:50:33;;;;;;;1.45;0.90;;;;;;;22.33;50.91;98959.63;10331077;28;20046;-71
2023/07/24 18:55:35;;;;;;;0.50;0.40;;;;;;;22.28;52.74;98952.16;10332982;28;20081;-70
2023/07/24 19:00:37;;;;;;;1.70;0.50;;;;;;;22.29;53.05;98950.25;10327086;28;20168;-71
2023/07/24 19:05:38;;;;;;;0.90;0.55;;;;;;;22.24;51.29;98964.50;10332155;28;20077;-72
2023/07/24 19:10:40;;;;;;;1.48;0.60;;;;;;;22.19;50.79;98973.34;10332645;28;20065;-71
2023/07/24 19:15:41;;;;;;;1.25;0.60;;;;;;;22.13;51.95;98973.41;10333011;28;20115;-70
2023/07/24 19:20:43;;;;;;;1.00;0.43;;;;;;;22.05;52.06;98974.56;10332618;28;20155;-70
2023/07/24 19:25:44;;;;;;;0.93;0.40;;;;;;;22.00;50.65;98964.44;10331054;28;20984;-71
2023/07/24 19:30:56;;;;;;;0.90;0.30;;;;;;;21.99;50.44;98989.88;10328762;28;20046;-71
2023/07/24 19:36:01;;;;;;;0.75;0.30;;;;;;;21.95;50.75;99001.38;10340903;28;20046;-71
2023/07/24 19:41:02;;;;;;;0.70;0.20;;;;;;;21.93;50.36;99001.59;10329705;28;20054;-71
2023/07/24 19:46:06;;;;;;;0.93;0.60;;;;;;;21.88;50.05;99015.03;10331152;28;21392;-70
2023/07/24 19:51:07;;;;;;;0.82;0.32;;;;;;;21.88;50.91;99029.38;10328111;28;20158;-71
2023/07/24 19:56:09;;;;;;;1.45;0.40;;;;;;;21.80;49.67;99021.59;10333692;28;20136;-70
2023/07/24 20:01:10;;;;;;;0.50;0.20;;;;;;;21.68;49.93;99015.28;10342496;28;20589;-69
2023/07/24 20:06:12;;;;;;;0.85;0.25;;;;;;;21.70;50.41;99024.00;10362875;28;20100;-67
2023/07/24 20:11:13;;;;;;;0.77;0.30;;;;;;;21.63;50.03;99023.22;10329826;28;20112;-71
2023/07/24 20:16:18;;;;;;;0.60;0.40;;;;;;;21.65;50.63;99030.09;10327131;28;20054;-69
2023/07/24 20:21:20;;;;;;;0.40;0.30;;;;;;;21.67;51.17;99040.69;10326742;28;20423;-69
2023/07/24 20:26:23;;;;;;;0.93;0.40;;;;;;;21.64;51.02;99038.44;10329183;28;20543;-69
2023/07/24 20:31:24;;;;;;;1.23;0.30;;;;;;;21.58;50.56;99036.63;10331871;28;20141;-69
2023/07/24 20:36:26;;;;;;;0.68;0.43;;;;;;;21.49;51.84;99055.84;10330633;28;20065;-70
2023/07/24 20:41:27;;;;;;;0.95;0.57;;;;;;;21.51;51.52;99047.50;10324340;28;20773;-71
2023/07/24 20:46:29;;;;;;;1.17;0.50;;;;;;;21.43;51.89;99055.91;10328112;28;20061;-69
2023/07/24 20:51:31;;;;;;;0.50;0.20;;;;;;;21.42;51.58;99065.06;10327305;28;20245;-70
2023/07/24 20:56:33;;;;;;;0.40;0.13;;;;;;;21.35;52.07;99065.97;10326446;28;22382;-69
2023/07/24 21:01:35;;;;;;;2.20;0.40;;;;;;;21.36;52.08;99066.78;10325530;28;20069;-69
2023/07/24 21:06:36;;;;;;;0.63;0.20;;;;;;;21.41;51.76;99074.22;10325861;28;20708;-70
2023/07/24 21:11:37;;;;;;;0.75;0.30;;;;;;;21.38;52.80;99067.41;10324294;28;20057;-68
2023/07/24 21:16:39;;;;;;;0.80;0.40;;;;;;;21.31;53.03;99075.56;10325934;28;20054;-70
2023/07/24 21:21:40;;;;;;;0.57;0.47;;;;;;;21.28;52.29;99086.84;10333538;28;20045;-70
2023/07/24 21:26:42;;;;;;;0.98;0.47;;;;;;;21.26;53.95;99082.69;10330284;28;20137;-71
2023/07/24 21:31:43;;;;;;;1.73;0.40;;;;;;;21.24;52.68;99088.34;10334724;28;20137;-71
2023/07/24 21:36:45;;;;;;;1.40;0.30;;;;;;;21.15;52.14;99077.00;10334515;28;20058;-69
2023/07/24 21:41:46;;;;;;;0.85;0.68;;;;;;;21.12;52.65;99082.00;10329856;28;20141;-70
2023/07/24 21:46:47;;;;;;;1.15;0.50;;;;;;;21.05;52.50;99076.66;10329487;28;20193;-71
2023/07/24 21:51:49;;;;;;;1.10;0.60;;;;;;;21.05;52.67;99097.44;10331352;28;20065;-69
2023/07/24 21:56:51;;;;;;;0.55;0.40;;;;;;;20.97;52.66;99091.28;10329885;28;20132;-69
2023/07/24 22:01:52;;;;;;;0.98;0.60;;;;;;;20.95;52.62;99095.25;10328713;28;20659;-69
2023/07/24 22:06:53;;;;;;;0.70;0.40;;;;;;;20.91;53.15;99096.72;10331927;28;20163;-71
2023/07/24 22:11:55;;;;;;;0.70;0.47;;;;;;;20.91;53.47;99102.97;10333009;28;20401;-70
2023/07/24 22:16:56;;;;;;;0.75;0.40;;;;;;;20.92;53.86;99107.31;10333192;28;20497;-72
2023/07/24 22:21:59;;;;;;;1.10;0.60;;;;;;;20.87;53.87;99107.16;10294438;28;1160708;-72
2023/07/24 22:27:00;;;;;;;0.90;0.50;;;;;;;20.83;53.92;99101.34;10332009;28;20133;-71
2023/07/24 22:32:02;;;;;;;0.70;0.40;;;;;;;20.77;52.91;99094.09;10329629;28;20054;-71
2023/07/24 22:37:05;;;;;;;0.80;0.40;;;;;;;20.79;54.04;99105.56;10337296;28;20122;-72
2023/07/24 22:42:07;;;;;;;1.17;0.95;;;;;;;20.77;54.34;99104.09;10334696;28;20061;-70
2023/07/24 22:47:08;;;;;;;1.52;0.60;;;;;;;20.71;54.48;99105.81;10331868;28;20187;-69
2023/07/24 22:52:10;;;;;;;1.30;0.40;;;;;;;20.72;53.10;99114.75;10332683;28;20112;-69
2023/07/24 22:57:11;;;;;;;1.35;0.65;;;;;;;20.68;53.24;99113.53;10333841;28;20053;-71
2023/07/24 23:02:12;;;;;;;1.80;0.70;;;;;;;20.63;54.06;99111.44;10332328;28;20073;-68
2023/07/24 23:07:14;;;;;;;1.38;0.75;;;;;;;20.60;54.39;99111.88;10328815;28;20054;-69
2023/07/24 23:12:15;;;;;;;0.90;0.68;;;;;;;20.59;55.04;99108.34;10328083;28;20112;-69
2023/07/24 23:17:17;;;;;;;0.75;0.52;;;;;;;20.60;56.60;99111.88;10333438;28;20412;-70
2023/07/24 23:22:18;;;;;;;1.75;1.00;;;;;;;20.62;56.38;99116.00;10330837;28;20057;-69